sensor_id;sensor_type;location;lat;lon;timestamp;temperature;humidity
52867;DHT22;38739;53.324;6.862;2022-11-15T00:01:35;7.40;99.90
52867;DHT22;38739;53.324;6.862;2022-11-15T00:04:05;7.40;99.90
52867;DHT22;38739;53.324;6.862;2022-11-15T00:06:31;7.50;99.90
52867;DHT22;38739;53.324;6.862;2022-11-15T00:09:00;7.40;99.90
52867;DHT22;38739;53.324;6.862;2022-11-15T00:11:27;7.40;99.90
52867;DHT22;38739;53.324;6.862;2022-11-15T00:13:57;7.40;99.90
52867;DHT22;38739;53.324;6.862;2022-11-15T00:16:23;7.50;99.90
52867;DHT22;38739;53.324;6.862;2022-11-15T00:18:50;7.40;99.90
52867;DHT22;38739;53.324;6.862;2022-11-15T00:21:17;7.50;99.90
52867;DHT22;38739;53.324;6.862;2022-11-15T00:23:43;7.50;99.90
52867;DHT22;38739;53.324;6.862;2022-11-15T00:26:13;7.50;99.90
52867;DHT22;38739;53.324;6.862;2022-11-15T00:28:40;7.40;99.90
52867;DHT22;38739;53.324;6.862;2022-11-15T00:31:10;7.50;99.90
52867;DHT22;38739;53.324;6.862;2022-11-15T00:33:36;7.50;99.90
52867;DHT22;38739;53.324;6.862;2022-11-15T00:36:04;7.50;99.90
52867;DHT22;38739;53.324;6.862;2022-11-15T00:38:34;7.50;99.90
52867;DHT22;38739;53.324;6.862;2022-11-15T00:41:01;7.50;99.90
52867;DHT22;38739;53.324;6.862;2022-11-15T00:43:27;7.40;99.90
52867;DHT22;38739;53.324;6.862;2022-11-15T00:45:52;7.40;99.90
52867;DHT22;38739;53.324;6.862;2022-11-15T00:48:18;7.40;99.90
52867;DHT22;38739;53.324;6.862;2022-11-15T00:50:44;7.30;99.90
52867;DHT22;38739;53.324;6.862;2022-11-15T00:53:10;7.30;99.90
52867;DHT22;38739;53.324;6.862;2022-11-15T00:55:35;7.20;99.90
52867;DHT22;38739;53.324;6.862;2022-11-15T00:58:01;7.20;99.90
52867;DHT22;38739;53.324;6.862;2022-11-15T01:00:27;7.20;99.90
52867;DHT22;38739;53.324;6.862;2022-11-15T01:02:52;7.10;99.90
52867;DHT22;38739;53.324;6.862;2022-11-15T01:05:18;7.10;99.90
52867;DHT22;38739;53.324;6.862;2022-11-15T01:07:44;7.00;99.90
52867;DHT22;38739;53.324;6.862;2022-11-15T01:10:09;7.00;99.90
52867;DHT22;38739;53.324;6.862;2022-11-15T01:12:35;7.00;99.90
52867;DHT22;38739;53.324;6.862;2022-11-15T01:15:01;7.00;99.90
52867;DHT22;38739;53.324;6.862;2022-11-15T01:17:26;6.90;99.90
52867;DHT22;38739;53.324;6.862;2022-11-15T01:19:52;7.00;99.90
52867;DHT22;38739;53.324;6.862;2022-11-15T01:22:18;6.90;99.90
52867;DHT22;38739;53.324;6.862;2022-11-15T01:24:44;6.90;99.90
52867;DHT22;38739;53.324;6.862;2022-11-15T01:27:09;6.80;99.90
52867;DHT22;38739;53.324;6.862;2022-11-15T01:29:35;6.70;99.90
52867;DHT22;38739;53.324;6.862;2022-11-15T01:32:01;6.70;99.90
52867;DHT22;38739;53.324;6.862;2022-11-15T01:34:26;6.70;99.90
52867;DHT22;38739;53.324;6.862;2022-11-15T01:36:52;6.70;99.90
52867;DHT22;38739;53.324;6.862;2022-11-15T01:39:18;6.60;99.90
52867;DHT22;38739;53.324;6.862;2022-11-15T01:41:44;6.60;99.90
52867;DHT22;38739;53.324;6.862;2022-11-15T01:47:03;6.50;99.90
52867;DHT22;38739;53.324;6.862;2022-11-15T01:49:33;6.50;99.90
52867;DHT22;38739;53.324;6.862;2022-11-15T01:52:02;6.50;99.90
52867;DHT22;38739;53.324;6.862;2022-11-15T01:54:29;6.60;99.90
52867;DHT22;38739;53.324;6.862;2022-11-15T01:57:09;6.60;99.90
52867;DHT22;38739;53.324;6.862;2022-11-15T01:59:38;6.70;99.90
52867;DHT22;38739;53.324;6.862;2022-11-15T02:02:05;6.70;99.90
52867;DHT22;38739;53.324;6.862;2022-11-15T02:04:32;6.80;99.90
52867;DHT22;38739;53.324;6.862;2022-11-15T02:07:01;6.80;99.90
52867;DHT22;38739;53.324;6.862;2022-11-15T02:09:29;6.80;99.90
52867;DHT22;38739;53.324;6.862;2022-11-15T02:11:55;6.90;99.90
52867;DHT22;38739;53.324;6.862;2022-11-15T02:14:22;6.90;99.90
52867;DHT22;38739;53.324;6.862;2022-11-15T02:39:05;7.10;99.90
52867;DHT22;38739;53.324;6.862;2022-11-15T02:41:57;7.20;99.90
52867;DHT22;38739;53.324;6.862;2022-11-15T02:44:32;7.20;99.90
52867;DHT22;38739;53.324;6.862;2022-11-15T02:47:06;7.30;99.90
52867;DHT22;38739;53.324;6.862;2022-11-15T02:52:17;7.30;99.90
52867;DHT22;38739;53.324;6.862;2022-11-15T02:54:53;7.40;99.90
52867;DHT22;38739;53.324;6.862;2022-11-15T03:00:18;7.40;99.90
52867;DHT22;38739;53.324;6.862;2022-11-15T03:03:10;7.40;99.90
52867;DHT22;38739;53.324;6.862;2022-11-15T03:05:47;7.40;99.90
52867;DHT22;38739;53.324;6.862;2022-11-15T03:13:30;7.40;99.90
52867;DHT22;38739;53.324;6.862;2022-11-15T03:16:10;7.40;99.90
52867;DHT22;38739;53.324;6.862;2022-11-15T03:18:40;7.40;99.90
52867;DHT22;38739;53.324;6.862;2022-11-15T03:21:08;7.50;99.90
52867;DHT22;38739;53.324;6.862;2022-11-15T03:23:36;7.50;99.90
52867;DHT22;38739;53.324;6.862;2022-11-15T03:26:07;7.50;99.90
52867;DHT22;38739;53.324;6.862;2022-11-15T03:28:41;7.50;99.90
52867;DHT22;38739;53.324;6.862;2022-11-15T03:31:09;7.50;99.90
52867;DHT22;38739;53.324;6.862;2022-11-15T03:33:56;7.50;99.90
52867;DHT22;38739;53.324;6.862;2022-11-15T03:36:25;7.50;99.90
52867;DHT22;38739;53.324;6.862;2022-11-15T03:38:56;7.50;99.90
52867;DHT22;38739;53.324;6.862;2022-11-15T03:41:27;7.50;99.90
52867;DHT22;38739;53.324;6.862;2022-11-15T03:47:10;7.60;99.90
52867;DHT22;38739;53.324;6.862;2022-11-15T03:49:42;7.60;99.90
52867;DHT22;38739;53.324;6.862;2022-11-15T03:52:10;7.60;99.90
52867;DHT22;38739;53.324;6.862;2022-11-15T03:54:37;7.60;99.90
52867;DHT22;38739;53.324;6.862;2022-11-15T03:57:02;7.60;99.90
52867;DHT22;38739;53.324;6.862;2022-11-15T03:59:28;7.70;99.90
52867;DHT22;38739;53.324;6.862;2022-11-15T04:01:54;7.70;99.90
52867;DHT22;38739;53.324;6.862;2022-11-15T04:04:19;7.70;99.90
52867;DHT22;38739;53.324;6.862;2022-11-15T04:06:45;7.70;99.90
52867;DHT22;38739;53.324;6.862;2022-11-15T04:09:11;7.70;99.90
52867;DHT22;38739;53.324;6.862;2022-11-15T04:11:36;7.70;99.90
52867;DHT22;38739;53.324;6.862;2022-11-15T04:14:02;7.70;99.90
52867;DHT22;38739;53.324;6.862;2022-11-15T04:16:28;7.70;99.90
52867;DHT22;38739;53.324;6.862;2022-11-15T04:18:53;7.70;99.90
52867;DHT22;38739;53.324;6.862;2022-11-15T04:21:37;7.80;99.90
52867;DHT22;38739;53.324;6.862;2022-11-15T04:24:22;7.80;99.90
52867;DHT22;38739;53.324;6.862;2022-11-15T04:26:48;7.80;99.90
52867;DHT22;38739;53.324;6.862;2022-11-15T04:29:14;7.70;99.90
52867;DHT22;38739;53.324;6.862;2022-11-15T04:31:58;7.80;99.90
52867;DHT22;38739;53.324;6.862;2022-11-15T04:34:23;7.80;99.90
52867;DHT22;38739;53.324;6.862;2022-11-15T04:36:49;7.80;99.90
52867;DHT22;38739;53.324;6.862;2022-11-15T04:39:33;7.80;99.90
52867;DHT22;38739;53.324;6.862;2022-11-15T04:41:59;7.80;99.90
52867;DHT22;38739;53.324;6.862;2022-11-15T04:44:24;7.80;99.90
52867;DHT22;38739;53.324;6.862;2022-11-15T04:46:50;7.80;99.90
52867;DHT22;38739;53.324;6.862;2022-11-15T04:49:16;7.80;99.90
52867;DHT22;38739;53.324;6.862;2022-11-15T04:51:41;7.80;99.90
52867;DHT22;38739;53.324;6.862;2022-11-15T04:54:07;7.80;99.90
52867;DHT22;38739;53.324;6.862;2022-11-15T04:56:33;7.80;99.90
52867;DHT22;38739;53.324;6.862;2022-11-15T04:58:58;7.80;99.90
52867;DHT22;38739;53.324;6.862;2022-11-15T05:01:24;7.80;99.90
52867;DHT22;38739;53.324;6.862;2022-11-15T05:03:50;7.80;99.90
52867;DHT22;38739;53.324;6.862;2022-11-15T05:06:34;7.70;99.90
52867;DHT22;38739;53.324;6.862;2022-11-15T05:08:59;7.80;99.90
52867;DHT22;38739;53.324;6.862;2022-11-15T05:11:25;7.80;99.90
52867;DHT22;38739;53.324;6.862;2022-11-15T05:13:53;7.80;99.90
52867;DHT22;38739;53.324;6.862;2022-11-15T05:16:18;7.80;99.90
52867;DHT22;38739;53.324;6.862;2022-11-15T05:18:44;7.80;99.90
52867;DHT22;38739;53.324;6.862;2022-11-15T05:21:12;7.80;99.90
52867;DHT22;38739;53.324;6.862;2022-11-15T05:23:39;7.80;99.90
52867;DHT22;38739;53.324;6.862;2022-11-15T05:26:06;7.80;99.90
52867;DHT22;38739;53.324;6.862;2022-11-15T05:28:33;7.80;99.90
52867;DHT22;38739;53.324;6.862;2022-11-15T05:31:17;7.80;99.90
52867;DHT22;38739;53.324;6.862;2022-11-15T05:33:43;7.80;99.90
52867;DHT22;38739;53.324;6.862;2022-11-15T05:36:21;7.90;99.90
52867;DHT22;38739;53.324;6.862;2022-11-15T05:38:49;7.90;99.90
52867;DHT22;38739;53.324;6.862;2022-11-15T05:41:17;7.90;99.90
52867;DHT22;38739;53.324;6.862;2022-11-15T05:43:45;7.90;99.90
52867;DHT22;38739;53.324;6.862;2022-11-15T05:46:13;7.90;99.90
52867;DHT22;38739;53.324;6.862;2022-11-15T05:48:41;7.90;99.90
52867;DHT22;38739;53.324;6.862;2022-11-15T05:51:08;7.90;99.90
52867;DHT22;38739;53.324;6.862;2022-11-15T05:53:35;7.90;99.90
52867;DHT22;38739;53.324;6.862;2022-11-15T05:56:02;7.90;99.90
52867;DHT22;38739;53.324;6.862;2022-11-15T05:58:31;8.00;99.90
52867;DHT22;38739;53.324;6.862;2022-11-15T06:00:57;8.00;99.90
52867;DHT22;38739;53.324;6.862;2022-11-15T06:03:23;8.00;99.90
52867;DHT22;38739;53.324;6.862;2022-11-15T06:05:48;8.00;99.90
52867;DHT22;38739;53.324;6.862;2022-11-15T06:08:14;8.00;99.90
52867;DHT22;38739;53.324;6.862;2022-11-15T06:10:40;8.00;99.90
52867;DHT22;38739;53.324;6.862;2022-11-15T06:13:06;8.00;99.90
52867;DHT22;38739;53.324;6.862;2022-11-15T06:15:34;8.10;99.90
52867;DHT22;38739;53.324;6.862;2022-11-15T06:18:00;8.10;99.90
52867;DHT22;38739;53.324;6.862;2022-11-15T06:20:27;8.10;99.90
52867;DHT22;38739;53.324;6.862;2022-11-15T06:23:01;8.10;99.90
52867;DHT22;38739;53.324;6.862;2022-11-15T06:25:28;8.10;99.90
52867;DHT22;38739;53.324;6.862;2022-11-15T06:27:55;8.20;99.90
52867;DHT22;38739;53.324;6.862;2022-11-15T06:30:22;8.20;99.90
52867;DHT22;38739;53.324;6.862;2022-11-15T06:32:48;8.20;99.90
52867;DHT22;38739;53.324;6.862;2022-11-15T06:35:14;8.20;99.90
52867;DHT22;38739;53.324;6.862;2022-11-15T06:37:40;8.20;99.90
52867;DHT22;38739;53.324;6.862;2022-11-15T06:40:08;8.20;99.90
52867;DHT22;38739;53.324;6.862;2022-11-15T06:42:34;8.30;99.90
52867;DHT22;38739;53.324;6.862;2022-11-15T06:44:59;8.30;99.90
52867;DHT22;38739;53.324;6.862;2022-11-15T06:47:25;8.30;99.90
52867;DHT22;38739;53.324;6.862;2022-11-15T06:49:51;8.30;99.90
52867;DHT22;38739;53.324;6.862;2022-11-15T06:52:17;8.30;99.90
52867;DHT22;38739;53.324;6.862;2022-11-15T06:54:44;8.30;99.90
52867;DHT22;38739;53.324;6.862;2022-11-15T06:57:10;8.40;99.90
52867;DHT22;38739;53.324;6.862;2022-11-15T06:59:36;8.40;99.90
52867;DHT22;38739;53.324;6.862;2022-11-15T07:02:02;8.40;99.90
52867;DHT22;38739;53.324;6.862;2022-11-15T07:04:28;8.50;99.90
52867;DHT22;38739;53.324;6.862;2022-11-15T07:06:54;8.50;99.90
52867;DHT22;38739;53.324;6.862;2022-11-15T07:09:19;8.60;99.90
52867;DHT22;38739;53.324;6.862;2022-11-15T07:11:45;8.60;99.90
52867;DHT22;38739;53.324;6.862;2022-11-15T07:14:11;8.70;99.90
52867;DHT22;38739;53.324;6.862;2022-11-15T07:16:37;8.70;99.90
52867;DHT22;38739;53.324;6.862;2022-11-15T07:19:03;8.80;99.90
52867;DHT22;38739;53.324;6.862;2022-11-15T07:21:29;8.80;99.90
52867;DHT22;38739;53.324;6.862;2022-11-15T07:23:55;8.90;99.90
52867;DHT22;38739;53.324;6.862;2022-11-15T07:26:20;8.90;99.90
52867;DHT22;38739;53.324;6.862;2022-11-15T07:28:46;8.90;99.90
52867;DHT22;38739;53.324;6.862;2022-11-15T07:31:12;9.00;99.90
52867;DHT22;38739;53.324;6.862;2022-11-15T07:33:37;9.00;99.90
52867;DHT22;38739;53.324;6.862;2022-11-15T07:36:05;9.10;99.90
52867;DHT22;38739;53.324;6.862;2022-11-15T07:38:31;9.10;99.90
52867;DHT22;38739;53.324;6.862;2022-11-15T07:41:02;9.10;99.90
52867;DHT22;38739;53.324;6.862;2022-11-15T07:43:29;9.10;99.90
52867;DHT22;38739;53.324;6.862;2022-11-15T07:45:55;9.20;99.90
52867;DHT22;38739;53.324;6.862;2022-11-15T07:48:22;9.30;99.90
52867;DHT22;38739;53.324;6.862;2022-11-15T07:50:48;9.30;99.90
52867;DHT22;38739;53.324;6.862;2022-11-15T07:53:14;9.30;99.90
52867;DHT22;38739;53.324;6.862;2022-11-15T07:55:40;9.30;99.90
52867;DHT22;38739;53.324;6.862;2022-11-15T07:58:09;9.30;99.90
52867;DHT22;38739;53.324;6.862;2022-11-15T08:00:36;9.30;99.90
52867;DHT22;38739;53.324;6.862;2022-11-15T08:03:13;9.40;99.90
52867;DHT22;38739;53.324;6.862;2022-11-15T08:05:41;9.40;99.90
52867;DHT22;38739;53.324;6.862;2022-11-15T08:08:09;9.50;99.90
52867;DHT22;38739;53.324;6.862;2022-11-15T08:10:36;9.50;99.90
52867;DHT22;38739;53.324;6.862;2022-11-15T08:13:06;9.50;99.90
52867;DHT22;38739;53.324;6.862;2022-11-15T08:15:34;9.60;99.90
52867;DHT22;38739;53.324;6.862;2022-11-15T08:18:02;9.60;99.90
52867;DHT22;38739;53.324;6.862;2022-11-15T08:20:29;9.60;99.90
52867;DHT22;38739;53.324;6.862;2022-11-15T08:22:56;9.60;99.90
52867;DHT22;38739;53.324;6.862;2022-11-15T08:25:23;9.70;99.90
52867;DHT22;38739;53.324;6.862;2022-11-15T08:27:56;9.70;99.90
52867;DHT22;38739;53.324;6.862;2022-11-15T08:30:22;9.70;99.90
52867;DHT22;38739;53.324;6.862;2022-11-15T08:32:50;9.80;99.90
52867;DHT22;38739;53.324;6.862;2022-11-15T08:35:16;9.80;99.90
52867;DHT22;38739;53.324;6.862;2022-11-15T08:37:42;9.80;99.90
52867;DHT22;38739;53.324;6.862;2022-11-15T08:40:08;9.90;99.90
52867;DHT22;38739;53.324;6.862;2022-11-15T08:42:35;9.90;99.90
52867;DHT22;38739;53.324;6.862;2022-11-15T08:45:01;9.90;99.90
52867;DHT22;38739;53.324;6.862;2022-11-15T08:47:27;10.00;99.90
52867;DHT22;38739;53.324;6.862;2022-11-15T08:49:53;10.00;99.90
52867;DHT22;38739;53.324;6.862;2022-11-15T08:52:18;10.10;99.90
52867;DHT22;38739;53.324;6.862;2022-11-15T08:54:44;10.20;99.90
52867;DHT22;38739;53.324;6.862;2022-11-15T08:57:10;10.30;99.90
52867;DHT22;38739;53.324;6.862;2022-11-15T08:59:37;10.30;99.90
52867;DHT22;38739;53.324;6.862;2022-11-15T09:02:03;10.40;99.90
52867;DHT22;38739;53.324;6.862;2022-11-15T09:04:29;10.50;99.90
52867;DHT22;38739;53.324;6.862;2022-11-15T09:06:55;10.50;99.90
52867;DHT22;38739;53.324;6.862;2022-11-15T09:09:21;10.50;99.90
52867;DHT22;38739;53.324;6.862;2022-11-15T09:11:46;10.50;99.90
52867;DHT22;38739;53.324;6.862;2022-11-15T09:14:13;10.60;99.90
52867;DHT22;38739;53.324;6.862;2022-11-15T09:16:39;10.70;99.90
52867;DHT22;38739;53.324;6.862;2022-11-15T09:19:05;10.70;99.90
52867;DHT22;38739;53.324;6.862;2022-11-15T09:21:31;10.80;99.90
52867;DHT22;38739;53.324;6.862;2022-11-15T09:23:57;10.90;99.90
52867;DHT22;38739;53.324;6.862;2022-11-15T09:26:23;11.00;99.90
52867;DHT22;38739;53.324;6.862;2022-11-15T09:28:49;11.10;99.90
52867;DHT22;38739;53.324;6.862;2022-11-15T09:31:16;11.20;99.90
52867;DHT22;38739;53.324;6.862;2022-11-15T09:33:45;11.30;99.90
52867;DHT22;38739;53.324;6.862;2022-11-15T09:36:11;11.40;99.90
52867;DHT22;38739;53.324;6.862;2022-11-15T09:38:37;11.50;99.90
52867;DHT22;38739;53.324;6.862;2022-11-15T09:44:00;11.60;99.90
52867;DHT22;38739;53.324;6.862;2022-11-15T09:49:17;11.60;99.90
52867;DHT22;38739;53.324;6.862;2022-11-15T09:51:45;11.60;99.90
52867;DHT22;38739;53.324;6.862;2022-11-15T09:54:41;11.60;99.90
52867;DHT22;38739;53.324;6.862;2022-11-15T10:05:14;11.70;99.90
52867;DHT22;38739;53.324;6.862;2022-11-15T10:10:42;11.70;99.90
52867;DHT22;38739;53.324;6.862;2022-11-15T10:13:45;11.70;99.90
52867;DHT22;38739;53.324;6.862;2022-11-15T10:27:46;11.70;99.90
52867;DHT22;38739;53.324;6.862;2022-11-15T10:30:17;11.70;99.90
52867;DHT22;38739;53.324;6.862;2022-11-15T10:32:45;11.70;99.90
52867;DHT22;38739;53.324;6.862;2022-11-15T10:35:26;11.70;99.90
52867;DHT22;38739;53.324;6.862;2022-11-15T10:38:05;11.60;99.90
52867;DHT22;38739;53.324;6.862;2022-11-15T10:40:31;11.60;99.90
52867;DHT22;38739;53.324;6.862;2022-11-15T10:43:14;11.60;99.90
52867;DHT22;38739;53.324;6.862;2022-11-15T10:45:40;11.60;99.90
52867;DHT22;38739;53.324;6.862;2022-11-15T10:48:24;11.60;99.90
52867;DHT22;38739;53.324;6.862;2022-11-15T10:50:52;11.70;99.90
52867;DHT22;38739;53.324;6.862;2022-11-15T10:53:38;11.60;99.90
52867;DHT22;38739;53.324;6.862;2022-11-15T10:56:11;11.70;99.90
52867;DHT22;38739;53.324;6.862;2022-11-15T10:58:42;11.60;99.90
52867;DHT22;38739;53.324;6.862;2022-11-15T11:03:43;11.70;99.90
52867;DHT22;38739;53.324;6.862;2022-11-15T11:06:17;11.70;99.90
52867;DHT22;38739;53.324;6.862;2022-11-15T11:09:03;11.70;99.90
52867;DHT22;38739;53.324;6.862;2022-11-15T11:11:47;11.70;99.90
52867;DHT22;38739;53.324;6.862;2022-11-15T11:14:20;11.70;99.90
52867;DHT22;38739;53.324;6.862;2022-11-15T11:30:57;11.70;99.90
52867;DHT22;38739;53.324;6.862;2022-11-15T11:36:38;11.70;99.90
52867;DHT22;38739;53.324;6.862;2022-11-15T11:39:19;11.70;99.90
52867;DHT22;38739;53.324;6.862;2022-11-15T11:44:40;11.70;99.90
52867;DHT22;38739;53.324;6.862;2022-11-15T11:47:23;11.70;99.90
52867;DHT22;38739;53.324;6.862;2022-11-15T11:52:28;11.70;99.90
52867;DHT22;38739;53.324;6.862;2022-11-15T11:55:05;11.70;99.90
52867;DHT22;38739;53.324;6.862;2022-11-15T12:00:26;11.70;99.90
52867;DHT22;38739;53.324;6.862;2022-11-15T12:11:58;11.80;99.90
52867;DHT22;38739;53.324;6.862;2022-11-15T12:14:49;11.90;99.90
52867;DHT22;38739;53.324;6.862;2022-11-15T12:17:19;11.90;99.90
52867;DHT22;38739;53.324;6.862;2022-11-15T12:19:47;11.90;99.90
52867;DHT22;38739;53.324;6.862;2022-11-15T12:24:54;12.00;99.90
52867;DHT22;38739;53.324;6.862;2022-11-15T12:27:35;12.20;99.90
52867;DHT22;38739;53.324;6.862;2022-11-15T12:30:22;12.20;99.90
52867;DHT22;38739;53.324;6.862;2022-11-15T12:32:55;12.20;99.90
52867;DHT22;38739;53.324;6.862;2022-11-15T12:35:41;12.30;99.90
52867;DHT22;38739;53.324;6.862;2022-11-15T12:38:12;12.30;99.90
52867;DHT22;38739;53.324;6.862;2022-11-15T12:41:17;12.30;99.90
52867;DHT22;38739;53.324;6.862;2022-11-15T12:43:44;12.30;99.90
52867;DHT22;38739;53.324;6.862;2022-11-15T12:48:53;12.40;99.90
52867;DHT22;38739;53.324;6.862;2022-11-15T12:51:22;12.50;99.90
52867;DHT22;38739;53.324;6.862;2022-11-15T12:53:48;12.60;99.90
52867;DHT22;38739;53.324;6.862;2022-11-15T13:14:47;12.60;99.90
52867;DHT22;38739;53.324;6.862;2022-11-15T13:22:18;12.50;99.90
52867;DHT22;38739;53.324;6.862;2022-11-15T13:25:04;12.40;99.90
52867;DHT22;38739;53.324;6.862;2022-11-15T13:27:40;12.40;99.90
52867;DHT22;38739;53.324;6.862;2022-11-15T13:30:14;12.30;99.90
52867;DHT22;38739;53.324;6.862;2022-11-15T13:32:41;12.30;99.90
52867;DHT22;38739;53.324;6.862;2022-11-15T13:35:07;12.30;99.90
52867;DHT22;38739;53.324;6.862;2022-11-15T13:37:33;12.30;99.90
52867;DHT22;38739;53.324;6.862;2022-11-15T13:40:26;12.30;99.90
52867;DHT22;38739;53.324;6.862;2022-11-15T13:42:53;12.40;99.90
52867;DHT22;38739;53.324;6.862;2022-11-15T13:45:23;12.40;99.90
52867;DHT22;38739;53.324;6.862;2022-11-15T13:47:57;12.40;99.90
52867;DHT22;38739;53.324;6.862;2022-11-15T13:50:31;12.40;99.90
52867;DHT22;38739;53.324;6.862;2022-11-15T13:53:01;12.40;99.90
52867;DHT22;38739;53.324;6.862;2022-11-15T13:55:29;12.40;99.90
52867;DHT22;38739;53.324;6.862;2022-11-15T13:58:00;12.40;99.90
52867;DHT22;38739;53.324;6.862;2022-11-15T14:00:42;12.30;99.90
52867;DHT22;38739;53.324;6.862;2022-11-15T14:03:25;12.20;99.90
52867;DHT22;38739;53.324;6.862;2022-11-15T14:06:12;12.20;99.90
52867;DHT22;38739;53.324;6.862;2022-11-15T14:08:42;12.20;99.90
52867;DHT22;38739;53.324;6.862;2022-11-15T14:11:22;12.10;99.90
52867;DHT22;38739;53.324;6.862;2022-11-15T14:19:09;12.00;99.90
52867;DHT22;38739;53.324;6.862;2022-11-15T14:21:35;12.00;99.90
52867;DHT22;38739;53.324;6.862;2022-11-15T14:24:18;12.00;99.90
52867;DHT22;38739;53.324;6.862;2022-11-15T14:26:44;11.90;99.90
52867;DHT22;38739;53.324;6.862;2022-11-15T14:29:27;11.90;99.90
52867;DHT22;38739;53.324;6.862;2022-11-15T14:31:54;11.90;99.90
52867;DHT22;38739;53.324;6.862;2022-11-15T14:34:32;11.80;99.90
52867;DHT22;38739;53.324;6.862;2022-11-15T14:36:58;11.80;99.90
52867;DHT22;38739;53.324;6.862;2022-11-15T14:39:23;11.70;99.90
52867;DHT22;38739;53.324;6.862;2022-11-15T14:41:50;11.70;99.90
52867;DHT22;38739;53.324;6.862;2022-11-15T14:44:16;11.70;99.90
52867;DHT22;38739;53.324;6.862;2022-11-15T14:46:44;11.60;99.90
52867;DHT22;38739;53.324;6.862;2022-11-15T14:49:09;11.60;99.90
52867;DHT22;38739;53.324;6.862;2022-11-15T14:51:35;11.50;99.90
52867;DHT22;38739;53.324;6.862;2022-11-15T14:54:01;11.50;99.90
52867;DHT22;38739;53.324;6.862;2022-11-15T14:56:27;11.40;99.90
52867;DHT22;38739;53.324;6.862;2022-11-15T14:58:52;11.40;99.90
52867;DHT22;38739;53.324;6.862;2022-11-15T15:01:23;11.40;99.90
52867;DHT22;38739;53.324;6.862;2022-11-15T15:03:49;11.30;99.90
52867;DHT22;38739;53.324;6.862;2022-11-15T15:06:17;11.30;99.90
52867;DHT22;38739;53.324;6.862;2022-11-15T15:08:42;11.20;99.90
52867;DHT22;38739;53.324;6.862;2022-11-15T15:11:23;11.20;99.90
52867;DHT22;38739;53.324;6.862;2022-11-15T15:13:50;11.10;99.90
52867;DHT22;38739;53.324;6.862;2022-11-15T15:16:17;11.10;99.90
52867;DHT22;38739;53.324;6.862;2022-11-15T15:18:43;11.00;99.90
52867;DHT22;38739;53.324;6.862;2022-11-15T15:21:23;11.00;99.90
52867;DHT22;38739;53.324;6.862;2022-11-15T15:23:50;11.00;99.90
52867;DHT22;38739;53.324;6.862;2022-11-15T15:26:16;10.90;99.90
52867;DHT22;38739;53.324;6.862;2022-11-15T15:28:42;10.90;99.90
52867;DHT22;38739;53.324;6.862;2022-11-15T15:31:09;10.80;99.90
52867;DHT22;38739;53.324;6.862;2022-11-15T15:33:35;10.80;99.90
52867;DHT22;38739;53.324;6.862;2022-11-15T15:36:01;10.70;99.90
52867;DHT22;38739;53.324;6.862;2022-11-15T15:38:27;10.70;99.90
52867;DHT22;38739;53.324;6.862;2022-11-15T15:40:53;10.60;99.90
52867;DHT22;38739;53.324;6.862;2022-11-15T15:43:20;10.60;99.90
52867;DHT22;38739;53.324;6.862;2022-11-15T15:45:45;10.60;99.90
52867;DHT22;38739;53.324;6.862;2022-11-15T15:48:14;10.50;99.90
52867;DHT22;38739;53.324;6.862;2022-11-15T15:50:40;10.50;99.90
52867;DHT22;38739;53.324;6.862;2022-11-15T15:53:09;10.50;99.90
52867;DHT22;38739;53.324;6.862;2022-11-15T15:55:36;10.50;99.90
52867;DHT22;38739;53.324;6.862;2022-11-15T15:58:03;10.50;99.90
52867;DHT22;38739;53.324;6.862;2022-11-15T16:00:29;10.40;99.90
52867;DHT22;38739;53.324;6.862;2022-11-15T16:02:55;10.50;99.90
52867;DHT22;38739;53.324;6.862;2022-11-15T16:05:21;10.50;99.90
52867;DHT22;38739;53.324;6.862;2022-11-15T16:07:48;10.40;99.90
52867;DHT22;38739;53.324;6.862;2022-11-15T16:10:28;10.40;99.90
52867;DHT22;38739;53.324;6.862;2022-11-15T16:12:55;10.40;99.90
52867;DHT22;38739;53.324;6.862;2022-11-15T16:15:24;10.40;99.90
52867;DHT22;38739;53.324;6.862;2022-11-15T16:17:53;10.40;99.90
52867;DHT22;38739;53.324;6.862;2022-11-15T16:20:40;10.50;99.90
52867;DHT22;38739;53.324;6.862;2022-11-15T16:23:09;10.50;99.90
52867;DHT22;38739;53.324;6.862;2022-11-15T16:25:54;10.50;99.90
52867;DHT22;38739;53.324;6.862;2022-11-15T16:28:31;10.60;99.90
52867;DHT22;38739;53.324;6.862;2022-11-15T16:31:11;10.60;99.90
52867;DHT22;38739;53.324;6.862;2022-11-15T16:33:37;10.60;99.90
52867;DHT22;38739;53.324;6.862;2022-11-15T16:36:05;10.70;99.90
52867;DHT22;38739;53.324;6.862;2022-11-15T16:38:31;10.70;99.90
52867;DHT22;38739;53.324;6.862;2022-11-15T16:40:57;10.70;99.90
52867;DHT22;38739;53.324;6.862;2022-11-15T16:43:23;10.70;99.90
52867;DHT22;38739;53.324;6.862;2022-11-15T16:45:49;10.70;99.90
52867;DHT22;38739;53.324;6.862;2022-11-15T16:48:26;10.80;99.90
52867;DHT22;38739;53.324;6.862;2022-11-15T16:50:56;10.80;99.90
52867;DHT22;38739;53.324;6.862;2022-11-15T16:53:23;10.80;99.90
52867;DHT22;38739;53.324;6.862;2022-11-15T16:55:49;10.70;99.90
52867;DHT22;38739;53.324;6.862;2022-11-15T16:58:14;10.70;99.90
52867;DHT22;38739;53.324;6.862;2022-11-15T17:00:43;10.70;99.90
52867;DHT22;38739;53.324;6.862;2022-11-15T17:03:09;10.70;99.90
52867;DHT22;38739;53.324;6.862;2022-11-15T17:05:36;10.60;99.90
52867;DHT22;38739;53.324;6.862;2022-11-15T17:08:01;10.70;99.90
52867;DHT22;38739;53.324;6.862;2022-11-15T17:10:27;10.60;99.90
52867;DHT22;38739;53.324;6.862;2022-11-15T17:12:54;10.60;99.90
52867;DHT22;38739;53.324;6.862;2022-11-15T17:15:20;10.60;99.90
52867;DHT22;38739;53.324;6.862;2022-11-15T17:17:53;10.70;99.90
52867;DHT22;38739;53.324;6.862;2022-11-15T17:20:22;10.60;99.90
52867;DHT22;38739;53.324;6.862;2022-11-15T17:22:49;10.60;99.90
52867;DHT22;38739;53.324;6.862;2022-11-15T17:25:14;10.60;99.90
52867;DHT22;38739;53.324;6.862;2022-11-15T17:27:40;10.60;99.90
52867;DHT22;38739;53.324;6.862;2022-11-15T17:30:07;10.60;99.90
52867;DHT22;38739;53.324;6.862;2022-11-15T17:32:41;10.60;99.90
52867;DHT22;38739;53.324;6.862;2022-11-15T17:35:08;10.60;99.90
52867;DHT22;38739;53.324;6.862;2022-11-15T17:37:35;10.60;99.90
52867;DHT22;38739;53.324;6.862;2022-11-15T17:40:01;10.60;99.90
52867;DHT22;38739;53.324;6.862;2022-11-15T17:42:27;10.60;99.90
52867;DHT22;38739;53.324;6.862;2022-11-15T17:44:53;10.60;99.90
52867;DHT22;38739;53.324;6.862;2022-11-15T17:47:18;10.60;99.90
52867;DHT22;38739;53.324;6.862;2022-11-15T17:49:44;10.60;99.90
52867;DHT22;38739;53.324;6.862;2022-11-15T17:52:09;10.60;99.90
52867;DHT22;38739;53.324;6.862;2022-11-15T17:54:35;10.60;99.90
52867;DHT22;38739;53.324;6.862;2022-11-15T17:57:01;10.60;99.90
52867;DHT22;38739;53.324;6.862;2022-11-15T17:59:27;10.60;99.90
52867;DHT22;38739;53.324;6.862;2022-11-15T18:01:52;10.60;99.90
52867;DHT22;38739;53.324;6.862;2022-11-15T18:04:18;10.60;99.90
52867;DHT22;38739;53.324;6.862;2022-11-15T18:06:44;10.50;99.90
52867;DHT22;38739;53.324;6.862;2022-11-15T18:09:10;10.50;99.90